createdAt,value
2022-10-15T00:01:43.885Z,13.29
2022-10-15T00:04:11.405Z,13.18
2022-10-15T00:06:40.267Z,13.29
2022-10-15T00:09:07.681Z,13.39
2022-10-15T00:11:35.566Z,13.27
2022-10-15T00:14:02.920Z,13.07
2022-10-15T00:16:30.476Z,13.04
2022-10-15T00:18:59.163Z,13.05
2022-10-15T00:21:26.872Z,13.17
2022-10-15T00:23:56.297Z,13.09
2022-10-15T00:26:26.167Z,13.01
2022-10-15T00:28:55.231Z,13.00
2022-10-15T00:31:24.299Z,12.78
2022-10-15T00:33:52.296Z,12.92
2022-10-15T00:36:22.388Z,12.86
2022-10-15T00:38:50.596Z,12.97
2022-10-15T00:41:21.972Z,13.01
2022-10-15T00:43:50.695Z,12.94
2022-10-15T00:46:22.510Z,13.02
2022-10-15T00:48:52.845Z,12.91
2022-10-15T00:51:21.002Z,13.11
2022-10-15T00:53:49.541Z,13.15
2022-10-15T00:56:22.093Z,13.14
2022-10-15T00:58:49.945Z,13.25
2022-10-15T01:01:17.393Z,13.37
2022-10-15T01:03:44.808Z,13.08
2022-10-15T01:06:12.254Z,13.14
2022-10-15T01:08:41.568Z,13.25
2022-10-15T01:11:22.942Z,13.49
2022-10-15T01:13:54.917Z,13.33
2022-10-15T01:16:26.117Z,13.51
2022-10-15T01:18:57.650Z,13.45
2022-10-15T01:21:30.089Z,13.51
2022-10-15T01:24:43.850Z,13.50
2022-10-15T01:27:22.445Z,13.28
2022-10-15T01:30:25.608Z,13.43
2022-10-15T01:33:10.472Z,13.39
2022-10-15T01:35:45.373Z,13.46
2022-10-15T01:38:28.524Z,13.52
2022-10-15T01:40:58.499Z,13.71
2022-10-15T01:43:31.509Z,13.87
2022-10-15T01:46:28.272Z,13.90
2022-10-15T01:49:05.125Z,13.87
2022-10-15T01:51:34.433Z,13.90
2022-10-15T01:54:03.197Z,14.02
2022-10-15T01:56:32.909Z,14.14
2022-10-15T01:59:00.465Z,14.19
2022-10-15T02:01:30.841Z,14.16
2022-10-15T02:03:58.270Z,14.21
2022-10-15T02:06:31.740Z,14.19
2022-10-15T02:09:08.841Z,14.07
2022-10-15T02:11:42.869Z,14.03
2022-10-15T02:14:12.737Z,14.13
2022-10-15T02:16:45.118Z,14.26
2022-10-15T02:19:19.538Z,14.17
2022-10-15T02:21:48.865Z,14.37
2022-10-15T02:24:20.844Z,14.31
2022-10-15T02:26:48.955Z,14.17
2022-10-15T02:29:19.069Z,14.31
2022-10-15T02:31:48.965Z,14.41
2022-10-15T02:34:18.996Z,14.62
2022-10-15T02:36:46.930Z,14.39
2022-10-15T02:39:16.981Z,14.65
2022-10-15T02:41:44.771Z,14.71
2022-10-15T02:44:13.967Z,14.75
2022-10-15T02:46:41.533Z,14.48
2022-10-15T02:49:12.398Z,14.54
2022-10-15T02:51:39.927Z,14.29
2022-10-15T02:54:08.415Z,14.15
2022-10-15T02:56:39.040Z,13.98
2022-10-15T02:59:06.926Z,13.88
2022-10-15T03:01:34.295Z,13.71
2022-10-15T03:04:02.457Z,13.71
2022-10-15T03:06:32.301Z,13.43
2022-10-15T03:09:00.045Z,13.37
2022-10-15T03:11:27.627Z,13.18
2022-10-15T03:13:55.130Z,13.36
2022-10-15T03:16:22.584Z,13.30
2022-10-15T03:18:50.341Z,13.33
2022-10-15T03:21:19.389Z,13.38
2022-10-15T03:23:48.772Z,13.38
2022-10-15T03:26:20.249Z,13.43
2022-10-15T03:28:47.643Z,13.46
2022-10-15T03:31:26.240Z,13.37
2022-10-15T03:33:56.783Z,13.26
2022-10-15T03:36:26.394Z,13.25
2022-10-15T03:38:55.191Z,13.11
2022-10-15T03:41:23.774Z,13.14
2022-10-15T03:43:52.065Z,13.17
2022-10-15T03:46:19.486Z,13.22
2022-10-15T03:48:50.818Z,13.34
2022-10-15T03:51:23.482Z,13.28
2022-10-15T03:53:58.669Z,13.41
2022-10-15T03:56:26.096Z,13.48
2022-10-15T03:58:59.152Z,13.58
2022-10-15T04:01:26.612Z,13.65
2022-10-15T04:03:54.362Z,13.66
2022-10-15T04:06:25.488Z,13.56
2022-10-15T04:08:53.771Z,13.54
2022-10-15T04:11:26.024Z,13.57
2022-10-15T04:14:01.884Z,13.68
2022-10-15T04:16:31.785Z,13.67
2022-10-15T04:18:59.519Z,13.45
2022-10-15T04:21:27.282Z,13.44
2022-10-15T04:23:59.272Z,13.56
2022-10-15T04:26:36.653Z,13.48
2022-10-15T04:29:04.456Z,13.46
2022-10-15T04:31:33.324Z,13.40
2022-10-15T04:34:01.704Z,13.37
2022-10-15T04:36:29.424Z,13.27
2022-10-15T04:39:01.016Z,13.11
2022-10-15T04:41:39.017Z,13.19
2022-10-15T04:44:18.316Z,13.06
2022-10-15T04:46:52.328Z,12.91
2022-10-15T04:49:32.753Z,12.84
2022-10-15T04:52:01.359Z,12.75
2022-10-15T04:54:31.519Z,12.77
2022-10-15T04:57:04.181Z,12.97
2022-10-15T04:59:31.803Z,12.83
2022-10-15T05:02:22.656Z,12.74
2022-10-15T05:04:55.647Z,12.89
2022-10-15T05:07:23.538Z,12.62
2022-10-15T05:09:52.535Z,12.81
2022-10-15T05:12:21.364Z,13.01
2022-10-15T05:14:48.734Z,13.03
2022-10-15T05:17:22.722Z,13.08
2022-10-15T05:19:50.298Z,12.98
2022-10-15T05:22:22.129Z,13.17
2022-10-15T05:24:53.597Z,13.16
2022-10-15T05:27:31.128Z,13.33
2022-10-15T05:29:59.565Z,13.40
2022-10-15T05:32:36.965Z,13.57
2022-10-15T05:35:05.678Z,13.45
2022-10-15T05:37:52.800Z,13.59
2022-10-15T05:40:22.010Z,13.54
2022-10-15T05:43:05.034Z,13.61
2022-10-15T05:45:32.466Z,13.84
2022-10-15T05:48:05.436Z,13.92
2022-10-15T05:50:32.885Z,14.03
2022-10-15T05:53:02.384Z,13.93
2022-10-15T05:55:47.248Z,14.02
2022-10-15T05:58:15.888Z,14.09
2022-10-15T06:00:43.240Z,14.09
2022-10-15T06:03:13.611Z,14.17
2022-10-15T06:05:41.052Z,14.21
2022-10-15T06:08:08.561Z,14.19
2022-10-15T06:10:37.625Z,14.01
2022-10-15T06:13:05.393Z,13.96
2022-10-15T06:15:34.701Z,13.86
2022-10-15T06:18:02.345Z,14.06
2022-10-15T06:20:29.737Z,14.14
2022-10-15T06:23:00.541Z,14.20
2022-10-15T06:25:28.549Z,13.98
2022-10-15T06:27:56.008Z,14.16
2022-10-15T06:30:27.859Z,14.47
2022-10-15T06:32:56.621Z,14.32
2022-10-15T06:35:24.768Z,14.55
2022-10-15T06:37:52.745Z,14.63
2022-10-15T06:40:20.181Z,14.70
2022-10-15T06:42:51.991Z,14.68
2022-10-15T06:45:21.710Z,14.81
2022-10-15T06:47:49.358Z,14.64
2022-10-15T06:50:18.349Z,14.49
2022-10-15T06:52:45.807Z,14.63
2022-10-15T06:55:13.322Z,14.51
2022-10-15T06:57:40.706Z,14.56
2022-10-15T07:00:09.020Z,14.56
2022-10-15T07:02:36.641Z,14.60
2022-10-15T07:05:04.152Z,14.59
2022-10-15T07:07:32.885Z,14.73
2022-10-15T07:10:00.233Z,14.76
2022-10-15T07:12:27.624Z,14.85
2022-10-15T07:14:55.017Z,14.86
2022-10-15T07:17:22.493Z,14.96
2022-10-15T07:19:49.881Z,14.84
2022-10-15T07:22:17.224Z,15.07
2022-10-15T07:24:45.943Z,15.16
2022-10-15T07:27:20.351Z,15.10
2022-10-15T07:29:49.324Z,14.98
2022-10-15T07:32:16.727Z,15.10
2022-10-15T07:34:44.166Z,15.02
2022-10-15T07:37:11.498Z,15.06
2022-10-15T07:39:40.850Z,14.94
2022-10-15T07:42:10.509Z,14.97
2022-10-15T07:44:37.936Z,14.82
2022-10-15T07:47:10.524Z,14.74
2022-10-15T07:49:37.883Z,14.87
2022-10-15T07:52:05.292Z,15.24
2022-10-15T07:54:33.841Z,15.37
2022-10-15T07:57:01.277Z,15.36
2022-10-15T07:59:30.001Z,15.36
2022-10-15T08:01:57.344Z,15.39
2022-10-15T08:04:24.761Z,15.62
2022-10-15T08:06:52.121Z,15.60
2022-10-15T08:09:20.094Z,15.45
2022-10-15T08:11:47.482Z,15.30
2022-10-15T08:14:18.384Z,15.61
2022-10-15T08:16:47.070Z,15.66
2022-10-15T08:19:17.410Z,16.07
2022-10-15T08:21:47.464Z,16.58
2022-10-15T08:24:15.092Z,16.35
2022-10-15T08:26:42.465Z,16.02
2022-10-15T08:29:10.809Z,16.13
2022-10-15T08:31:38.245Z,16.35
2022-10-15T08:34:07.761Z,16.49
2022-10-15T08:36:35.373Z,16.31
2022-10-15T08:39:02.729Z,16.59
2022-10-15T08:41:33.803Z,16.89
2022-10-15T08:44:01.480Z,17.00
2022-10-15T08:46:32.658Z,17.53
2022-10-15T08:49:00.838Z,17.45
2022-10-15T08:51:34.758Z,17.90
2022-10-15T08:54:04.701Z,17.39
2022-10-15T08:56:36.600Z,17.64
2022-10-15T08:59:12.437Z,17.74
2022-10-15T09:01:44.604Z,17.85
2022-10-15T09:04:20.424Z,18.13
2022-10-15T09:06:50.513Z,17.58
2022-10-15T09:09:23.780Z,17.69
2022-10-15T09:11:58.393Z,17.49
2022-10-15T09:14:30.977Z,17.91
2022-10-15T09:17:00.961Z,18.00
2022-10-15T09:19:29.448Z,18.03
2022-10-15T09:22:02.030Z,17.67
2022-10-15T09:24:30.997Z,17.82
2022-10-15T09:27:05.006Z,17.78
2022-10-15T09:29:34.672Z,17.86
2022-10-15T09:32:08.524Z,18.06
2022-10-15T09:34:40.836Z,18.01
2022-10-15T09:37:15.384Z,18.08
2022-10-15T09:40:20.397Z,17.77
2022-10-15T09:42:50.706Z,18.22
2022-10-15T09:45:18.457Z,17.27
2022-10-15T09:47:46.590Z,17.67
2022-10-15T09:50:15.251Z,17.17
2022-10-15T09:52:55.684Z,17.40
2022-10-15T09:55:34.480Z,17.30
2022-10-15T09:58:04.771Z,17.57
2022-10-15T10:00:54.029Z,17.82
2022-10-15T10:03:23.408Z,17.73
2022-10-15T10:05:51.343Z,17.75
2022-10-15T10:08:22.726Z,17.53
2022-10-15T10:10:55.297Z,17.48
2022-10-15T10:13:25.545Z,17.65
2022-10-15T10:15:58.320Z,17.76
2022-10-15T10:18:27.114Z,18.30
2022-10-15T10:20:58.731Z,18.76
2022-10-15T10:23:31.854Z,19.08
2022-10-15T10:25:59.952Z,19.28
2022-10-15T10:28:30.090Z,18.91
2022-10-15T10:31:04.366Z,18.49
2022-10-15T10:33:34.649Z,18.57
2022-10-15T10:36:02.633Z,19.19
2022-10-15T10:38:33.542Z,19.24
2022-10-15T10:41:06.768Z,18.88
2022-10-15T10:43:39.151Z,19.21
2022-10-15T10:46:17.705Z,18.85
2022-10-15T10:48:49.179Z,18.44
2022-10-15T10:51:19.589Z,18.02
2022-10-15T10:53:55.381Z,18.59
2022-10-15T10:56:25.041Z,18.75
2022-10-15T10:58:56.924Z,18.58
2022-10-15T11:01:24.381Z,18.74
2022-10-15T11:03:51.787Z,19.28
2022-10-15T11:06:29.937Z,19.23
2022-10-15T11:09:07.918Z,19.59
2022-10-15T11:11:40.362Z,19.75
2022-10-15T11:14:17.483Z,19.56
2022-10-15T11:16:50.814Z,19.28
2022-10-15T11:19:54.723Z,19.29
2022-10-15T11:22:30.200Z,19.19
2022-10-15T11:25:07.531Z,19.36
2022-10-15T11:27:44.659Z,19.21
2022-10-15T11:30:20.864Z,18.99
2022-10-15T11:33:07.019Z,18.59
2022-10-15T11:35:52.842Z,18.54
2022-10-15T11:38:29.365Z,18.78
2022-10-15T11:41:08.688Z,18.33
2022-10-15T11:43:48.741Z,18.61
2022-10-15T11:46:20.764Z,18.56
2022-10-15T11:49:02.122Z,18.71
2022-10-15T11:51:33.144Z,18.90
2022-10-15T11:54:10.481Z,18.75
2022-10-15T11:56:41.307Z,18.81
2022-10-15T11:59:19.914Z,18.68
2022-10-15T12:01:49.517Z,18.58
2022-10-15T12:04:20.229Z,18.65
2022-10-15T12:06:51.855Z,18.82
2022-10-15T12:09:23.312Z,18.91
2022-10-15T12:11:54.389Z,19.07
2022-10-15T12:14:26.160Z,19.07
2022-10-15T12:16:59.531Z,19.30
2022-10-15T12:19:30.301Z,19.19
2022-10-15T12:22:09.492Z,19.29
2022-10-15T12:24:54.551Z,19.66
2022-10-15T12:27:26.298Z,19.48
2022-10-15T12:30:13.761Z,19.48
2022-10-15T12:32:42.612Z,19.58
2022-10-15T12:37:50.612Z,19.72
2022-10-15T12:40:27.916Z,19.70
2022-10-15T12:42:58.096Z,19.83
2022-10-15T12:45:37.304Z,19.53
2022-10-15T12:48:31.405Z,19.61
2022-10-15T12:51:38.632Z,19.77
2022-10-15T12:54:33.466Z,19.85
2022-10-15T12:57:00.773Z,19.94
2022-10-15T12:59:56.270Z,19.79
2022-10-15T13:02:37.429Z,19.67
2022-10-15T13:05:05.731Z,19.75
2022-10-15T13:07:35.808Z,19.57
2022-10-15T13:10:03.545Z,19.15
2022-10-15T13:12:31.188Z,19.41
2022-10-15T13:15:03.679Z,19.30
2022-10-15T13:17:31.393Z,18.86
2022-10-15T13:20:00.926Z,18.07
2022-10-15T13:22:29.468Z,17.64
2022-10-15T13:24:57.166Z,17.40
2022-10-15T13:27:26.421Z,17.17
2022-10-15T13:29:55.860Z,17.43
2022-10-15T13:32:25.091Z,17.59
2022-10-15T13:34:53.557Z,17.36
2022-10-15T13:37:25.836Z,17.56
2022-10-15T13:39:53.545Z,17.73
2022-10-15T13:42:23.909Z,17.77
2022-10-15T13:44:59.695Z,17.91
2022-10-15T13:47:30.921Z,17.86
2022-10-15T13:50:15.484Z,17.78
2022-10-15T13:52:44.637Z,17.86
2022-10-15T13:55:18.456Z,17.79
2022-10-15T14:00:26.664Z,17.88
2022-10-15T14:03:18.431Z,17.83
2022-10-15T14:05:47.342Z,17.99
2022-10-15T14:08:24.368Z,17.90
2022-10-15T14:10:53.371Z,17.96
2022-10-15T14:13:20.873Z,17.99
2022-10-15T14:15:57.184Z,17.80
2022-10-15T14:18:34.093Z,17.75
2022-10-15T14:21:02.196Z,17.87
2022-10-15T14:23:29.836Z,17.81
2022-10-15T14:26:00.073Z,17.87
2022-10-15T14:28:28.645Z,17.57
2022-10-15T14:30:57.089Z,17.77
2022-10-15T14:33:43.246Z,17.82
2022-10-15T14:36:15.297Z,17.54
2022-10-15T14:40:22.328Z,17.52
2022-10-15T14:42:51.655Z,17.49
2022-10-15T14:45:25.393Z,17.83
2022-10-15T14:47:55.132Z,17.69
2022-10-15T14:50:25.661Z,17.74
2022-10-15T14:52:54.418Z,17.86
2022-10-15T14:55:32.957Z,17.77
2022-10-15T14:58:01.958Z,17.72
2022-10-15T15:00:32.825Z,17.68
2022-10-15T15:03:02.484Z,17.76
2022-10-15T15:05:30.226Z,18.03
2022-10-15T15:08:01.843Z,17.95
2022-10-15T15:10:32.937Z,18.20
2022-10-15T15:13:02.833Z,18.28
2022-10-15T15:15:30.197Z,18.26
2022-10-15T15:17:57.562Z,17.96
2022-10-15T15:20:25.845Z,17.87
2022-10-15T15:22:55.109Z,17.74
2022-10-15T15:25:25.924Z,17.89
2022-10-15T15:27:54.639Z,17.85
2022-10-15T15:30:24.145Z,17.91
2022-10-15T15:32:51.853Z,17.77
2022-10-15T15:35:24.701Z,17.75
2022-10-15T15:37:52.297Z,17.85
2022-10-15T15:40:20.141Z,17.88
2022-10-15T15:42:48.813Z,17.86
2022-10-15T15:45:21.434Z,17.80
2022-10-15T15:47:48.918Z,18.02
2022-10-15T15:50:16.781Z,18.00
2022-10-15T15:52:44.333Z,18.15
2022-10-15T15:55:12.288Z,18.08
2022-10-15T15:57:39.666Z,18.12
2022-10-15T16:00:09.606Z,18.14
2022-10-15T16:02:39.001Z,18.02
2022-10-15T16:05:07.518Z,17.98
2022-10-15T16:07:35.223Z,18.09
2022-10-15T16:10:03.869Z,17.77
2022-10-15T16:12:33.830Z,17.73
2022-10-15T16:15:01.389Z,17.96
2022-10-15T16:17:28.860Z,17.86
2022-10-15T16:19:57.560Z,17.77
2022-10-15T16:22:24.899Z,17.89
2022-10-15T16:24:52.264Z,17.86
2022-10-15T16:27:19.737Z,17.98
2022-10-15T16:29:47.338Z,17.87
2022-10-15T16:32:14.963Z,17.71
2022-10-15T16:34:42.273Z,17.74
2022-10-15T16:37:10.944Z,17.62
2022-10-15T16:39:38.272Z,17.72
2022-10-15T16:42:05.719Z,17.73
2022-10-15T16:44:33.133Z,17.70
2022-10-15T16:47:00.481Z,17.76
2022-10-15T16:49:28.224Z,17.64
2022-10-15T16:51:55.600Z,17.65
2022-10-15T16:54:24.321Z,17.65
2022-10-15T16:56:52.954Z,17.57
2022-10-15T16:59:20.568Z,17.49
2022-10-15T17:01:48.102Z,17.55
2022-10-15T17:04:15.457Z,17.61
2022-10-15T17:06:42.821Z,17.61
2022-10-15T17:09:10.130Z,17.74
2022-10-15T17:11:40.868Z,17.65
2022-10-15T17:14:10.487Z,17.89
2022-10-15T17:16:39.498Z,17.81
2022-10-15T17:19:07.423Z,17.81
2022-10-15T17:21:35.142Z,17.72
2022-10-15T17:24:04.660Z,17.77
2022-10-15T17:26:36.101Z,17.42
2022-10-15T17:29:05.972Z,17.31
2022-10-15T17:31:33.500Z,17.22
2022-10-15T17:34:02.433Z,17.17
2022-10-15T17:36:32.057Z,17.31
2022-10-15T17:38:59.878Z,17.17
2022-10-15T17:41:30.656Z,17.32
2022-10-15T17:43:58.428Z,16.95
2022-10-15T17:46:28.754Z,16.91
2022-10-15T17:48:56.621Z,16.99
2022-10-15T17:51:25.648Z,17.10
2022-10-15T17:53:57.680Z,17.04
2022-10-15T17:56:27.320Z,17.14
2022-10-15T17:58:57.112Z,17.12
2022-10-15T18:01:33.738Z,17.21
2022-10-15T18:04:13.708Z,17.06
2022-10-15T18:06:44.111Z,17.10
2022-10-15T18:09:16.911Z,17.16
2022-10-15T18:11:45.982Z,17.22
2022-10-15T18:14:13.840Z,17.21
2022-10-15T18:16:43.180Z,17.34
2022-10-15T18:19:13.249Z,17.27
2022-10-15T18:21:41.406Z,17.16
2022-10-15T18:24:10.137Z,17.25
2022-10-15T18:26:37.606Z,17.18
2022-10-15T18:29:05.703Z,17.12
2022-10-15T18:31:33.124Z,17.16
2022-10-15T18:34:01.857Z,17.12
2022-10-15T18:36:30.616Z,17.12
2022-10-15T18:38:58.553Z,17.17
2022-10-15T18:41:28.100Z,17.11
2022-10-15T18:43:57.486Z,16.98
2022-10-15T18:46:29.820Z,16.95
2022-10-15T18:48:57.460Z,16.96
2022-10-15T18:51:28.668Z,16.77
2022-10-15T18:53:56.370Z,16.92
2022-10-15T18:56:23.905Z,16.55
2022-10-15T18:58:52.302Z,16.72
2022-10-15T19:01:26.379Z,16.62
2022-10-15T19:03:53.797Z,16.43
2022-10-15T19:06:21.429Z,16.31
2022-10-15T19:08:50.680Z,16.43
2022-10-15T19:11:18.821Z,16.27
2022-10-15T19:13:46.201Z,16.03
2022-10-15T19:16:13.560Z,16.24
2022-10-15T19:18:41.438Z,16.29
2022-10-15T19:21:09.013Z,16.20
2022-10-15T19:23:36.596Z,16.20
2022-10-15T19:26:09.109Z,16.24
2022-10-15T19:28:37.441Z,16.16
2022-10-15T19:31:07.025Z,16.09
2022-10-15T19:33:36.701Z,16.14
2022-10-15T19:36:04.982Z,16.21
2022-10-15T19:38:32.369Z,16.37
2022-10-15T19:41:02.953Z,16.00
2022-10-15T19:43:31.629Z,16.01
2022-10-15T19:46:03.670Z,16.06
2022-10-15T19:48:32.368Z,16.12
2022-10-15T19:51:01.777Z,16.03
2022-10-15T19:53:29.460Z,15.93
2022-10-15T19:55:58.442Z,15.94
2022-10-15T19:58:26.614Z,15.85
2022-10-15T20:00:55.838Z,15.79
2022-10-15T20:03:24.509Z,15.75
2022-10-15T20:05:51.953Z,15.68
2022-10-15T20:08:19.460Z,15.81
2022-10-15T20:10:48.721Z,15.66
2022-10-15T20:13:16.708Z,15.46
2022-10-15T20:15:45.051Z,15.54
2022-10-15T20:18:13.900Z,15.21
2022-10-15T20:20:43.385Z,15.06
2022-10-15T20:23:11.707Z,15.18
2022-10-15T20:25:39.124Z,15.11
2022-10-15T20:28:06.642Z,14.90
2022-10-15T20:30:34.023Z,14.78
2022-10-15T20:33:01.378Z,14.65
2022-10-15T20:35:30.168Z,14.70
2022-10-15T20:37:57.516Z,14.60
2022-10-15T20:40:24.877Z,14.48
2022-10-15T20:42:52.284Z,14.53
2022-10-15T20:45:19.949Z,14.50
2022-10-15T20:47:49.860Z,14.32
2022-10-15T20:50:19.537Z,14.25
2022-10-15T20:52:48.403Z,14.41
2022-10-15T20:55:15.943Z,14.54
2022-10-15T20:57:43.354Z,14.46
2022-10-15T21:00:11.892Z,14.40
2022-10-15T21:02:39.219Z,14.35
2022-10-15T21:05:07.439Z,14.38
2022-10-15T21:07:34.886Z,14.61
2022-10-15T21:10:03.572Z,14.51
2022-10-15T21:12:30.933Z,14.54
2022-10-15T21:14:58.293Z,14.64
2022-10-15T21:17:25.921Z,14.40
2022-10-15T21:19:53.541Z,14.61
2022-10-15T21:22:20.965Z,14.45
2022-10-15T21:24:48.301Z,14.48
2022-10-15T21:27:16.944Z,14.37
2022-10-15T21:29:45.538Z,14.38
2022-10-15T21:32:12.876Z,14.47
2022-10-15T21:37:12.574Z,14.13
2022-10-15T21:39:39.962Z,14.23
2022-10-15T21:42:07.305Z,14.29
2022-10-15T21:44:36.004Z,14.38
2022-10-15T21:47:05.001Z,14.40
2022-10-15T21:49:32.348Z,14.36
2022-10-15T21:51:59.661Z,14.23
2022-10-15T21:54:27.081Z,14.29
2022-10-15T21:56:54.416Z,14.38
2022-10-15T21:59:21.963Z,14.37
2022-10-15T22:01:50.612Z,14.45
2022-10-15T22:04:17.969Z,14.30
2022-10-15T22:06:45.285Z,14.37
2022-10-15T22:09:12.605Z,14.30
2022-10-15T22:11:41.787Z,14.50
2022-10-15T22:14:11.884Z,14.59
2022-10-15T22:16:40.154Z,14.69
2022-10-15T22:19:09.591Z,14.63
2022-10-15T22:21:38.670Z,14.76
2022-10-15T22:24:08.903Z,14.57
2022-10-15T22:26:38.849Z,14.77
2022-10-15T22:29:07.883Z,14.74
2022-10-15T22:31:35.449Z,14.53
2022-10-15T22:34:02.824Z,14.50
2022-10-15T22:36:32.343Z,14.47
2022-10-15T22:39:02.237Z,14.51
2022-10-15T22:41:30.582Z,14.41
2022-10-15T22:43:58.461Z,14.46
2022-10-15T22:46:25.965Z,14.54
2022-10-15T22:48:53.596Z,14.62
2022-10-15T22:51:21.915Z,14.38
2022-10-15T22:53:50.558Z,14.53
2022-10-15T22:56:19.388Z,14.36
2022-10-15T22:58:47.141Z,14.39
2022-10-15T23:01:16.429Z,14.32
2022-10-15T23:03:45.509Z,14.42
2022-10-15T23:06:13.865Z,14.39
2022-10-15T23:08:41.540Z,14.36
2022-10-15T23:11:12.016Z,14.49
2022-10-15T23:13:40.708Z,14.38
2022-10-15T23:16:13.952Z,14.30
2022-10-15T23:18:41.929Z,14.22
2022-10-15T23:21:13.633Z,14.14
2022-10-15T23:23:41.257Z,14.16
2022-10-15T23:26:11.905Z,14.30
2022-10-15T23:28:39.716Z,14.29
2022-10-15T23:31:07.335Z,14.17
2022-10-15T23:33:34.697Z,14.16
2022-10-15T23:36:04.745Z,14.17
2022-10-15T23:38:32.419Z,14.17
2022-10-15T23:41:01.386Z,14.12
2022-10-15T23:43:30.536Z,14.23
2022-10-15T23:45:58.021Z,14.36
2022-10-15T23:48:26.240Z,14.32
2022-10-15T23:50:53.802Z,14.19
2022-10-15T23:53:21.488Z,14.34
2022-10-15T23:55:49.085Z,14.37
2022-10-15T23:58:16.589Z,14.24
